createdAt,value
2019-04-04T00:01:02.076Z,7.13
2019-04-04T00:03:34.926Z,7.11
2019-04-04T00:06:07.048Z,7.07
2019-04-04T00:08:38.106Z,7.02
2019-04-04T00:11:10.076Z,7.01
2019-04-04T00:13:42.623Z,7.00
2019-04-04T00:16:16.669Z,6.96
2019-04-04T00:18:48.645Z,6.92
2019-04-04T00:21:20.685Z,6.90
2019-04-04T00:23:52.597Z,6.88
2019-04-04T00:26:24.685Z,6.87
2019-04-04T00:28:56.786Z,6.84
2019-04-04T00:31:28.846Z,6.84
2019-04-04T00:34:00.876Z,6.78
2019-04-04T00:36:34.716Z,6.71
2019-04-04T00:39:09.482Z,6.68
2019-04-04T00:41:42.982Z,6.68
2019-04-04T00:44:15.835Z,6.67
2019-04-04T00:46:47.857Z,6.64
2019-04-04T00:49:20.792Z,6.60
2019-04-04T00:51:52.725Z,6.57
2019-04-04T00:54:24.771Z,6.53
2019-04-04T00:56:56.867Z,6.51
2019-04-04T00:59:28.846Z,6.47
2019-04-04T01:02:00.966Z,6.40
2019-04-04T01:04:33.016Z,6.36
2019-04-04T01:07:05.706Z,6.34
2019-04-04T01:09:37.696Z,6.35
2019-04-04T01:12:09.785Z,6.33
2019-04-04T01:14:41.734Z,6.34
2019-04-04T01:17:14.934Z,6.33
2019-04-04T01:19:48.741Z,6.29
2019-04-04T01:22:19.754Z,6.25
2019-04-04T01:24:50.751Z,6.24
2019-04-04T01:27:22.596Z,6.19
2019-04-04T01:29:54.516Z,6.19
2019-04-04T01:32:26.614Z,6.17
2019-04-04T01:34:58.705Z,6.14
2019-04-04T01:37:31.106Z,6.10
2019-04-04T01:40:03.806Z,6.04
2019-04-04T01:42:38.699Z,6.02
2019-04-04T01:45:12.884Z,5.95
2019-04-04T01:47:43.508Z,5.90
2019-04-04T01:50:15.443Z,5.84
2019-04-04T01:52:47.426Z,5.79
2019-04-04T01:55:19.446Z,5.78
2019-04-04T01:57:51.456Z,5.76
2019-04-04T02:00:23.524Z,5.72
2019-04-04T02:02:55.580Z,5.68
2019-04-04T02:05:27.652Z,5.66
2019-04-04T02:08:00.997Z,5.65
2019-04-04T02:10:34.847Z,5.64
2019-04-04T02:13:09.555Z,5.61
2019-04-04T02:15:40.967Z,5.60
2019-04-04T02:18:13.113Z,5.60
2019-04-04T02:20:48.750Z,5.53
2019-04-04T02:23:23.384Z,5.50
2019-04-04T02:25:55.264Z,5.41
2019-04-04T02:28:27.347Z,5.35
2019-04-04T02:30:59.644Z,5.31
2019-04-04T02:33:32.536Z,5.25
2019-04-04T02:36:05.375Z,5.20
2019-04-04T02:38:37.336Z,5.07
2019-04-04T02:41:09.247Z,5.07
2019-04-04T02:43:41.228Z,5.06
2019-04-04T02:46:13.173Z,5.09
2019-04-04T02:48:45.147Z,5.07
2019-04-04T02:51:17.396Z,5.05
2019-04-04T02:53:51.894Z,5.02
2019-04-04T02:56:22.846Z,5.00
2019-04-04T02:58:55.014Z,4.95
2019-04-04T03:01:26.964Z,4.91
2019-04-04T03:03:59.064Z,4.86
2019-04-04T03:06:31.205Z,4.83
2019-04-04T03:09:08.853Z,4.80
2019-04-04T03:11:38.586Z,4.79
2019-04-04T03:14:10.475Z,4.76
2019-04-04T03:16:42.614Z,4.74
2019-04-04T03:19:13.755Z,4.77
2019-04-04T03:21:45.477Z,4.74
2019-04-04T03:24:17.456Z,4.75
2019-04-04T03:26:52.312Z,4.75
2019-04-04T03:29:23.017Z,4.71
2019-04-04T03:31:55.136Z,4.69
2019-04-04T03:34:27.195Z,4.68
2019-04-04T03:36:59.062Z,4.69
2019-04-04T03:39:31.067Z,4.70
2019-04-04T03:42:07.217Z,4.67
2019-04-04T03:44:36.943Z,4.66
2019-04-04T03:47:10.397Z,4.63
2019-04-04T03:49:42.555Z,4.60
2019-04-04T03:52:14.516Z,4.56
2019-04-04T03:54:46.539Z,4.59
2019-04-04T03:57:18.585Z,4.61
2019-04-04T03:59:50.634Z,4.56
2019-04-04T04:02:22.586Z,4.54
2019-04-04T04:04:54.550Z,4.52
2019-04-04T04:07:26.671Z,4.50
2019-04-04T04:09:59.657Z,4.47
2019-04-04T04:12:33.436Z,4.42
2019-04-04T04:15:05.634Z,4.42
2019-04-04T04:17:36.661Z,4.42
2019-04-04T04:20:08.647Z,4.40
2019-04-04T04:22:40.632Z,4.40
2019-04-04T04:25:13.774Z,4.40
2019-04-04T04:27:48.454Z,4.38
2019-04-04T04:30:19.886Z,4.37
2019-04-04T04:32:55.850Z,4.45
2019-04-04T04:35:24.318Z,4.48
2019-04-04T04:37:56.766Z,4.50
2019-04-04T04:40:28.717Z,4.52
2019-04-04T04:43:01.024Z,4.54
2019-04-04T04:45:32.159Z,4.59
2019-04-04T04:48:03.852Z,4.62
2019-04-04T04:50:35.806Z,4.67
2019-04-04T04:53:08.041Z,4.69
2019-04-04T04:55:39.115Z,4.74
2019-04-04T04:58:11.402Z,4.72
2019-04-04T05:00:45.180Z,4.76
2019-04-04T05:03:19.249Z,4.78
2019-04-04T05:05:51.195Z,4.82
2019-04-04T05:08:23.252Z,4.87
2019-04-04T05:10:55.296Z,4.92
2019-04-04T05:13:28.764Z,4.98
2019-04-04T05:16:05.227Z,5.04
2019-04-04T05:18:36.127Z,5.10
2019-04-04T05:21:08.241Z,5.16
2019-04-04T05:23:40.265Z,5.22
2019-04-04T05:26:12.217Z,5.30
2019-04-04T05:28:44.316Z,5.37
2019-04-04T05:31:18.169Z,5.46
2019-04-04T05:33:50.099Z,5.56
2019-04-04T05:36:30.514Z,5.64
2019-04-04T05:39:02.616Z,5.72
2019-04-04T05:41:37.225Z,5.83
2019-04-04T05:44:09.968Z,5.96
2019-04-04T05:46:42.006Z,6.07
2019-04-04T05:49:13.024Z,6.23
2019-04-04T05:51:46.343Z,6.35
2019-04-04T05:54:18.465Z,6.47
2019-04-04T05:56:50.386Z,6.61
2019-04-04T05:59:25.276Z,6.81
2019-04-04T06:01:57.244Z,7.01
2019-04-04T06:04:29.174Z,7.18
2019-04-04T06:07:03.939Z,7.27
2019-04-04T06:09:34.905Z,7.35
2019-04-04T06:12:06.965Z,7.47
2019-04-04T06:14:39.016Z,7.59
2019-04-04T06:17:11.073Z,7.76
2019-04-04T06:19:44.657Z,7.95
2019-04-04T06:22:17.142Z,8.17
2019-04-04T06:24:52.004Z,8.39
2019-04-04T06:27:22.746Z,8.57
2019-04-04T06:29:54.826Z,8.81
2019-04-04T06:32:26.899Z,9.01
2019-04-04T06:34:58.844Z,9.22
2019-04-04T06:37:30.884Z,9.44
2019-04-04T06:40:02.846Z,9.56
2019-04-04T06:42:36.020Z,9.74
2019-04-04T06:45:08.694Z,9.93
2019-04-04T06:47:40.626Z,10.18
2019-04-04T06:50:12.876Z,10.40
2019-04-04T06:52:45.026Z,10.60
2019-04-04T06:55:16.896Z,10.68
2019-04-04T06:57:51.287Z,10.71
2019-04-04T07:00:22.806Z,10.79
2019-04-04T07:02:56.084Z,10.99
2019-04-04T07:05:26.724Z,11.18
2019-04-04T07:07:58.437Z,11.37
2019-04-04T07:10:30.434Z,11.61
2019-04-04T07:13:20.151Z,11.88
2019-04-04T07:15:46.199Z,11.97
2019-04-04T07:18:12.035Z,11.88
2019-04-04T07:20:43.653Z,11.78
2019-04-04T07:23:16.233Z,11.68
2019-04-04T07:25:48.293Z,11.60
2019-04-04T07:28:20.227Z,11.60
2019-04-04T07:30:54.607Z,11.64
2019-04-04T07:33:26.026Z,12.00
2019-04-04T07:35:58.023Z,12.38
2019-04-04T07:38:30.084Z,12.80
2019-04-04T07:41:03.108Z,13.18
2019-04-04T07:43:35.216Z,13.23
2019-04-04T07:46:16.350Z,13.48
2019-04-04T07:48:42.196Z,13.87
2019-04-04T07:51:14.273Z,14.04
2019-04-04T07:53:46.194Z,14.17
2019-04-04T07:56:18.266Z,14.24
2019-04-04T07:58:50.306Z,14.59
2019-04-04T08:01:22.177Z,14.95
2019-04-04T08:03:54.097Z,15.04
2019-04-04T08:06:26.114Z,15.33
2019-04-04T08:08:58.295Z,15.69
2019-04-04T08:11:30.244Z,15.81
2019-04-04T08:14:02.473Z,16.14
2019-04-04T08:16:34.445Z,16.41
2019-04-04T08:19:06.624Z,16.58
2019-04-04T08:21:38.716Z,16.54
2019-04-04T08:24:10.065Z,16.38
2019-04-04T08:26:42.792Z,15.96
2019-04-04T08:29:14.756Z,15.67
2019-04-04T08:31:46.784Z,15.61
2019-04-04T08:34:19.146Z,16.27
2019-04-04T08:36:51.303Z,16.87
2019-04-04T08:39:24.616Z,17.33
2019-04-04T08:41:56.906Z,17.62
2019-04-04T08:44:27.934Z,17.94
2019-04-04T08:46:59.934Z,18.28
2019-04-04T08:49:30.963Z,18.34
2019-04-04T08:52:02.738Z,18.71
2019-04-04T08:54:36.468Z,18.81
2019-04-04T08:57:08.656Z,19.14
2019-04-04T08:59:41.386Z,19.54
2019-04-04T09:02:13.486Z,19.91
2019-04-04T09:04:46.835Z,20.16
2019-04-04T09:07:18.894Z,20.07
2019-04-04T09:09:51.181Z,20.04
2019-04-04T09:12:22.397Z,20.46
2019-04-04T09:14:54.184Z,20.34
2019-04-04T09:17:26.414Z,20.74
2019-04-04T09:19:58.297Z,21.04
2019-04-04T09:22:30.449Z,21.19
2019-04-04T09:25:01.675Z,21.20
2019-04-04T09:27:34.426Z,20.39
2019-04-04T09:30:07.197Z,19.96
2019-04-04T09:32:39.415Z,19.64
2019-04-04T09:35:11.486Z,19.60
2019-04-04T09:37:43.629Z,19.64
2019-04-04T09:40:15.736Z,19.85
2019-04-04T09:42:46.734Z,20.42
2019-04-04T09:45:18.587Z,20.03
2019-04-04T09:47:51.544Z,20.14
2019-04-04T09:50:23.496Z,20.49
2019-04-04T09:52:55.714Z,20.95
2019-04-04T09:55:28.225Z,21.55
2019-04-04T09:58:01.654Z,21.88
2019-04-04T10:00:33.775Z,21.80
2019-04-04T10:03:04.995Z,21.82
2019-04-04T10:05:37.427Z,21.03
2019-04-04T10:08:10.226Z,20.51
2019-04-04T10:10:41.294Z,19.99
2019-04-04T10:13:13.421Z,19.59
2019-04-04T10:15:45.537Z,19.38
2019-04-04T10:18:16.554Z,19.28
2019-04-04T10:20:48.396Z,19.20
2019-04-04T10:23:20.512Z,19.09
2019-04-04T10:25:52.710Z,19.26
2019-04-04T10:28:24.746Z,19.72
2019-04-04T10:30:56.698Z,20.20
2019-04-04T10:33:28.676Z,20.81
2019-04-04T10:36:00.666Z,21.19
2019-04-04T10:38:32.635Z,21.54
2019-04-04T10:41:04.677Z,22.38
2019-04-04T10:43:35.724Z,23.06
2019-04-04T10:46:07.659Z,23.21
2019-04-04T10:48:39.655Z,23.21
2019-04-04T10:51:11.689Z,23.12
2019-04-04T10:53:43.696Z,22.95
2019-04-04T10:56:14.785Z,22.10
2019-04-04T10:58:46.486Z,21.50
2019-04-04T11:01:18.996Z,21.33
2019-04-04T11:03:50.896Z,21.48
2019-04-04T11:06:22.878Z,22.06
2019-04-04T11:08:53.964Z,22.46
2019-04-04T11:11:26.244Z,23.24
2019-04-04T11:13:59.077Z,23.92
2019-04-04T11:16:31.094Z,24.42
2019-04-04T11:19:02.134Z,24.40
2019-04-04T11:21:34.205Z,24.69
2019-04-04T11:24:05.325Z,24.94
2019-04-04T11:26:37.515Z,24.86
2019-04-04T11:29:09.556Z,25.01
2019-04-04T11:31:42.135Z,25.32
2019-04-04T11:34:14.051Z,25.53
2019-04-04T11:36:45.135Z,25.76
2019-04-04T11:39:18.304Z,25.66
2019-04-04T11:41:50.254Z,25.63
2019-04-04T11:44:22.244Z,25.58
2019-04-04T11:46:54.176Z,25.79
2019-04-04T11:49:25.214Z,25.98
2019-04-04T11:51:57.033Z,25.99
2019-04-04T11:54:28.044Z,25.96
2019-04-04T11:56:59.805Z,26.07
2019-04-04T11:59:31.816Z,26.15
2019-04-04T12:02:04.463Z,26.09
2019-04-04T12:04:36.486Z,26.41
2019-04-04T12:07:07.404Z,26.25
2019-04-04T12:09:39.276Z,25.88
2019-04-04T12:12:11.697Z,26.32
2019-04-04T12:14:42.785Z,26.13
2019-04-04T12:17:14.705Z,26.01
2019-04-04T12:19:46.815Z,26.31
2019-04-04T12:22:18.905Z,26.33
2019-04-04T12:24:51.178Z,26.20
2019-04-04T12:27:23.437Z,26.14
2019-04-04T12:29:55.406Z,26.31
2019-04-04T12:32:27.386Z,25.84
2019-04-04T12:34:59.523Z,25.98
2019-04-04T12:37:30.515Z,26.17
2019-04-04T12:40:02.246Z,26.01
2019-04-04T12:42:35.497Z,26.08
2019-04-04T12:45:08.034Z,26.17
2019-04-04T12:47:40.097Z,26.05
2019-04-04T12:50:12.443Z,26.08
2019-04-04T12:52:44.659Z,26.10
2019-04-04T12:55:17.770Z,26.09
2019-04-04T12:57:51.147Z,26.18
2019-04-04T13:00:26.218Z,26.39
2019-04-04T13:02:58.068Z,26.23
2019-04-04T13:05:30.066Z,26.23
2019-04-04T13:08:01.005Z,26.40
2019-04-04T13:10:33.668Z,26.41
2019-04-04T13:13:06.146Z,26.28
2019-04-04T13:15:38.237Z,26.27
2019-04-04T13:18:10.136Z,26.48
2019-04-04T13:20:42.305Z,26.55
2019-04-04T13:23:14.063Z,26.38
2019-04-04T13:25:45.154Z,26.21
2019-04-04T13:28:18.104Z,26.22
2019-04-04T13:30:50.346Z,25.92
2019-04-04T13:33:22.629Z,25.99
2019-04-04T13:35:54.646Z,25.65
2019-04-04T13:38:26.165Z,25.43
2019-04-04T13:40:58.300Z,25.20
2019-04-04T13:43:30.519Z,25.10
2019-04-04T13:46:02.936Z,25.04
2019-04-04T13:48:34.028Z,25.05
2019-04-04T13:51:06.274Z,25.09
2019-04-04T13:53:41.197Z,25.33
2019-04-04T13:56:12.284Z,25.28
2019-04-04T13:58:47.322Z,25.00
2019-04-04T14:01:18.077Z,24.94
2019-04-04T14:03:50.346Z,24.58
2019-04-04T14:06:22.697Z,24.60
2019-04-04T14:08:55.014Z,24.55
2019-04-04T14:11:27.434Z,24.59
2019-04-04T14:13:59.676Z,24.60
2019-04-04T14:16:31.733Z,24.50
2019-04-04T14:19:03.965Z,24.45
2019-04-04T14:21:36.235Z,24.20
2019-04-04T14:24:13.798Z,23.91
2019-04-04T14:26:42.064Z,23.93
2019-04-04T14:29:26.740Z,23.96
2019-04-04T14:31:48.165Z,23.99
2019-04-04T14:34:20.115Z,23.94
2019-04-04T14:36:54.006Z,23.75
2019-04-04T14:39:26.150Z,23.59
2019-04-04T14:41:57.106Z,23.61
2019-04-04T14:44:30.191Z,23.36
2019-04-04T14:47:03.446Z,23.23
2019-04-04T14:49:36.746Z,23.12
2019-04-04T14:52:07.876Z,23.06
2019-04-04T14:54:39.835Z,22.52
2019-04-04T14:57:11.766Z,22.37
2019-04-04T14:59:43.766Z,22.37
2019-04-04T15:02:14.755Z,22.25
2019-04-04T15:04:46.566Z,22.09
2019-04-04T15:07:17.605Z,22.10
2019-04-04T15:09:49.384Z,21.93
2019-04-04T15:12:21.234Z,22.04
2019-04-04T15:14:53.174Z,21.87
2019-04-04T15:17:25.254Z,21.68
2019-04-04T15:19:56.244Z,21.69
2019-04-04T15:22:31.826Z,21.40
2019-04-04T15:25:02.676Z,21.41
2019-04-04T15:27:34.668Z,21.34
2019-04-04T15:30:07.825Z,21.15
2019-04-04T15:32:40.607Z,20.85
2019-04-04T15:35:12.695Z,20.77
2019-04-04T15:37:43.585Z,20.68
2019-04-04T15:40:15.458Z,20.29
2019-04-04T15:42:46.395Z,19.84
2019-04-04T15:45:18.306Z,19.36
2019-04-04T15:47:49.176Z,19.21
2019-04-04T15:50:20.916Z,18.85
2019-04-04T15:52:52.844Z,18.75
2019-04-04T15:55:24.887Z,18.55
2019-04-04T15:57:57.436Z,18.30
2019-04-04T16:00:29.565Z,18.14
2019-04-04T16:03:01.572Z,18.04
2019-04-04T16:05:32.741Z,17.97
2019-04-04T16:08:04.566Z,17.94
2019-04-04T16:10:36.537Z,17.86
2019-04-04T16:13:08.457Z,17.77
2019-04-04T16:15:40.546Z,17.70
2019-04-04T16:18:12.616Z,17.58
2019-04-04T16:20:44.616Z,17.38
2019-04-04T16:23:16.536Z,17.22
2019-04-04T16:25:48.477Z,17.07
2019-04-04T16:28:20.508Z,16.95
2019-04-04T16:30:52.576Z,16.87
2019-04-04T16:33:26.516Z,16.73
2019-04-04T16:35:58.556Z,16.69
2019-04-04T16:38:30.486Z,16.57
2019-04-04T16:41:02.536Z,16.39
2019-04-04T16:43:35.627Z,16.28
2019-04-04T16:46:07.676Z,16.19
2019-04-04T16:48:39.616Z,16.13
2019-04-04T16:51:11.746Z,16.06
2019-04-04T16:53:43.815Z,15.94
2019-04-04T16:56:14.925Z,15.83
2019-04-04T16:58:46.786Z,15.73
2019-04-04T17:01:18.748Z,15.62
2019-04-04T17:04:00.999Z,15.49
2019-04-04T17:06:24.901Z,15.34
2019-04-04T17:08:55.704Z,15.22
2019-04-04T17:11:27.590Z,15.02
2019-04-04T17:14:00.692Z,14.94
2019-04-04T17:16:31.824Z,14.78
2019-04-04T17:19:05.906Z,14.67
2019-04-04T17:21:39.175Z,14.64
2019-04-04T17:24:15.556Z,14.63
2019-04-04T17:26:47.651Z,14.59
2019-04-04T17:29:19.665Z,14.52
2019-04-04T17:31:51.917Z,14.46
2019-04-04T17:34:22.944Z,14.43
2019-04-04T17:36:55.158Z,14.32
2019-04-04T17:39:30.030Z,14.31
2019-04-04T17:42:02.516Z,14.35
2019-04-04T17:44:34.465Z,14.34
2019-04-04T17:47:06.720Z,14.29
2019-04-04T17:49:37.834Z,14.21
2019-04-04T17:52:10.117Z,14.13
2019-04-04T17:54:43.146Z,14.12
2019-04-04T17:57:15.497Z,14.10
2019-04-04T17:59:47.626Z,14.07
2019-04-04T18:02:20.336Z,14.03
2019-04-04T18:04:55.821Z,14.01
2019-04-04T18:07:30.966Z,13.97
2019-04-04T18:10:05.224Z,13.89
2019-04-04T18:12:41.085Z,13.80
2019-04-04T18:15:14.442Z,13.75
2019-04-04T18:17:45.508Z,13.72
2019-04-04T18:20:17.860Z,13.69
2019-04-04T18:22:57.936Z,13.65
2019-04-04T18:25:32.226Z,13.62
2019-04-04T18:28:04.166Z,13.58
2019-04-04T18:30:36.366Z,13.51
2019-04-04T18:33:09.355Z,13.44
2019-04-04T19:12:35.181Z,13.04
2019-04-04T19:15:08.450Z,13.00
2019-04-04T19:17:44.403Z,12.96
2019-04-04T19:20:17.250Z,12.90
2019-04-04T19:22:49.889Z,12.85
2019-04-04T19:25:22.539Z,12.82
2019-04-04T19:27:54.910Z,12.77
2019-04-04T19:30:27.410Z,12.75
2019-04-04T19:32:59.992Z,12.71
2019-04-04T19:39:07.197Z,12.65
2019-04-04T19:41:40.108Z,12.64
2019-04-04T19:44:12.713Z,12.67
2019-04-04T19:46:45.127Z,12.68
2019-04-04T19:49:17.652Z,12.67
2019-04-04T19:51:50.128Z,12.60
2019-04-04T19:54:22.648Z,12.59
2019-04-04T19:56:55.117Z,12.53
2019-04-04T19:59:27.597Z,12.46
2019-04-04T20:02:00.060Z,12.37
2019-04-04T20:04:33.147Z,12.27
2019-04-04T20:07:06.028Z,12.23
2019-04-04T20:09:38.587Z,12.18
2019-04-04T20:12:11.326Z,12.13
2019-04-04T20:14:43.898Z,12.09
2019-04-04T20:17:16.418Z,12.04
2019-04-04T20:19:48.819Z,12.00
2019-04-04T20:22:21.399Z,11.97
2019-04-04T20:24:53.747Z,11.93
2019-04-04T20:27:26.257Z,11.89
2019-04-04T20:29:58.571Z,11.82
2019-04-04T20:32:31.218Z,11.76
2019-04-04T20:35:03.648Z,11.70
2019-04-04T20:37:36.049Z,11.63
2019-04-04T20:40:08.962Z,11.57
2019-04-04T20:42:41.809Z,11.51
2019-04-04T20:45:14.198Z,11.45
2019-04-04T20:47:47.407Z,11.39
2019-04-04T20:50:19.838Z,11.34
2019-04-04T20:52:52.305Z,11.30
2019-04-04T20:55:25.191Z,11.25
2019-04-04T20:57:56.917Z,11.11
2019-04-04T21:00:28.962Z,10.92
2019-04-04T21:03:01.104Z,10.79
2019-04-04T21:05:33.102Z,10.69
2019-04-04T21:08:05.308Z,10.62
2019-04-04T21:10:37.459Z,10.53
2019-04-04T21:13:08.460Z,10.51
2019-04-04T21:15:40.292Z,10.37
2019-04-04T21:18:14.000Z,10.21
2019-04-04T21:20:45.902Z,10.10
2019-04-04T21:23:17.834Z,9.92
2019-04-04T21:25:49.983Z,9.80
2019-04-04T21:28:22.040Z,9.67
2019-04-04T21:30:54.242Z,9.62
2019-04-04T21:33:25.240Z,9.54
2019-04-04T21:35:57.122Z,9.44
2019-04-04T21:38:29.145Z,9.34
2019-04-04T21:41:01.222Z,9.28
2019-04-04T21:43:33.199Z,9.33
2019-04-04T21:46:05.472Z,9.40
2019-04-04T21:48:36.471Z,9.36
2019-04-04T21:51:09.413Z,9.38
2019-04-04T21:53:40.420Z,9.40
2019-04-04T21:56:12.162Z,9.37
2019-04-04T21:58:44.162Z,9.41
2019-04-04T22:01:16.522Z,9.39
2019-04-04T22:03:49.962Z,9.43
2019-04-04T22:06:22.002Z,9.45
2019-04-04T22:08:54.002Z,9.47
2019-04-04T22:11:25.982Z,9.45
2019-04-04T22:13:58.002Z,9.44
2019-04-04T22:16:30.172Z,9.49
2019-04-04T22:19:02.184Z,9.49
2019-04-04T22:21:34.121Z,9.48
2019-04-04T22:24:06.192Z,9.51
2019-04-04T22:26:38.197Z,9.52
2019-04-04T22:29:10.163Z,9.57
2019-04-04T22:31:42.182Z,9.61
2019-04-04T22:34:14.315Z,9.60
2019-04-04T22:36:46.241Z,9.63
2019-04-04T22:39:18.182Z,9.66
2019-04-04T22:41:50.162Z,9.71
2019-04-04T22:44:34.127Z,9.76
2019-04-04T22:46:55.882Z,9.80
2019-04-04T22:49:28.036Z,9.80
2019-04-04T22:52:00.072Z,9.83
2019-04-04T22:54:32.012Z,9.86
2019-04-04T22:57:04.033Z,9.89
2019-04-04T22:59:36.052Z,9.92
2019-04-04T23:02:08.302Z,9.93
2019-04-04T23:04:40.250Z,9.95
2019-04-04T23:07:12.392Z,9.98
2019-04-04T23:09:43.522Z,9.98
2019-04-04T23:12:15.416Z,9.94
2019-04-04T23:14:48.394Z,9.93
2019-04-04T23:17:19.342Z,9.90
2019-04-04T23:19:51.453Z,9.85
2019-04-04T23:22:22.610Z,9.84
2019-04-04T23:24:55.136Z,9.80
2019-04-04T23:27:28.183Z,9.78
2019-04-04T23:30:00.342Z,9.73
2019-04-04T23:32:31.391Z,9.69
2019-04-04T23:35:03.322Z,9.61
2019-04-04T23:37:34.492Z,9.59
2019-04-04T23:40:06.731Z,9.54
2019-04-04T23:42:39.012Z,9.53
2019-04-04T23:45:11.573Z,9.54
2019-04-04T23:47:43.760Z,9.53
2019-04-04T23:50:17.042Z,9.53
2019-04-04T23:52:49.303Z,9.51
2019-04-04T23:55:21.320Z,9.47
2019-04-04T23:57:53.434Z,9.43
